createdAt,value
2019-02-16T00:12:32.067Z,6.57
2019-02-16T00:22:48.454Z,6.14
2019-02-16T00:27:56.637Z,6.84
2019-02-16T00:33:04.834Z,6.50
2019-02-16T01:09:03.552Z,6.78
2019-02-16T01:14:12.625Z,6.71
2019-02-16T01:19:20.673Z,6.43
2019-02-16T01:24:28.818Z,6.60
2019-02-16T01:39:53.606Z,6.79
2019-02-16T01:45:01.729Z,6.75
2019-02-16T01:50:09.840Z,7.67
2019-02-16T01:55:18.248Z,7.36
2019-02-16T02:00:26.529Z,7.77
2019-02-16T02:05:34.800Z,7.45
2019-02-16T02:10:43.017Z,7.73
2019-02-16T02:15:51.141Z,7.61
2019-02-16T02:20:59.174Z,7.47
2019-02-16T02:26:07.273Z,7.25
2019-02-16T02:31:15.409Z,7.05
2019-02-16T02:36:23.666Z,7.41
2019-02-16T02:41:31.824Z,6.90
2019-02-16T02:46:39.963Z,7.22
2019-02-16T02:51:52.289Z,7.01
2019-02-16T02:56:55.965Z,6.96
2019-02-16T03:02:04.069Z,7.53
2019-02-16T03:07:12.237Z,7.15
2019-02-16T03:12:20.450Z,7.79
2019-02-16T03:17:28.543Z,7.17
2019-02-16T03:22:36.738Z,7.83
2019-02-16T03:27:44.945Z,7.57
2019-02-16T03:32:53.163Z,7.02
2019-02-16T03:38:01.217Z,6.94
2019-02-16T03:43:09.296Z,7.07
2019-02-16T03:48:17.405Z,7.27
2019-02-16T03:53:25.488Z,7.02
2019-02-16T03:58:33.571Z,7.07
2019-02-16T04:03:41.681Z,6.77
2019-02-16T04:08:49.819Z,6.95
2019-02-16T04:13:57.781Z,7.40
2019-02-16T04:19:05.740Z,6.64
2019-02-16T04:24:13.778Z,6.70
2019-02-16T04:29:21.729Z,6.88
2019-02-16T04:34:29.701Z,7.23
2019-02-16T04:39:37.628Z,6.89
2019-02-16T04:44:45.694Z,6.89
2019-02-16T04:49:53.720Z,6.85
2019-02-16T04:55:01.805Z,6.76
2019-02-16T05:00:09.993Z,7.00
2019-02-16T05:05:17.937Z,6.88
2019-02-16T05:10:25.936Z,6.94
2019-02-16T05:15:33.881Z,6.78
2019-02-16T05:20:41.872Z,7.29
2019-02-16T05:25:51.133Z,7.78
2019-02-16T05:30:57.337Z,6.78
2019-02-16T05:36:05.302Z,6.25
2019-02-16T05:41:13.372Z,6.59
2019-02-16T05:46:21.784Z,6.68
2019-02-16T05:51:29.937Z,6.53
2019-02-16T05:56:38.109Z,6.95
2019-02-16T06:01:53.579Z,6.17
2019-02-16T06:06:54.218Z,6.84
2019-02-16T06:12:02.941Z,6.50
2019-02-16T06:17:10.887Z,7.05
2019-02-16T06:22:19.279Z,6.39
2019-02-16T06:27:27.453Z,6.55
2019-02-16T06:32:36.022Z,6.78
2019-02-16T06:37:44.118Z,6.62
2019-02-16T06:42:52.522Z,6.67
2019-02-16T06:48:00.954Z,7.10
2019-02-16T06:53:13.274Z,7.14
2019-02-16T06:58:16.743Z,8.47
2019-02-16T07:03:25.191Z,9.23
2019-02-16T07:08:33.355Z,7.39
2019-02-16T07:13:41.624Z,7.07
2019-02-16T07:18:49.756Z,7.18
2019-02-16T07:23:58.130Z,7.15
2019-02-16T07:29:06.420Z,7.13
2019-02-16T07:34:14.633Z,7.38
2019-02-16T07:39:22.709Z,7.14
2019-02-16T07:49:39.637Z,7.45
2019-02-16T07:54:48.695Z,7.12
2019-02-16T08:05:05.845Z,7.56
2019-02-16T08:10:14.930Z,7.10
2019-02-16T08:20:31.178Z,7.49
2019-02-16T08:30:47.465Z,8.20
2019-02-16T08:35:55.565Z,7.85
2019-02-16T08:41:03.624Z,8.29
2019-02-16T08:51:19.685Z,8.07
2019-02-16T08:56:27.726Z,8.14
2019-02-16T09:06:44.503Z,8.87
2019-02-16T09:11:52.505Z,8.00
2019-02-16T09:17:00.565Z,9.07
2019-02-16T09:22:08.700Z,8.52
2019-02-16T09:27:16.850Z,8.87
2019-02-16T09:32:24.916Z,9.13
2019-02-16T09:37:32.914Z,8.59
2019-02-16T09:42:40.893Z,9.03
2019-02-16T09:47:49.013Z,8.93
2019-02-16T09:52:57.171Z,9.49
2019-02-16T09:58:05.132Z,9.19
2019-02-16T10:03:13.088Z,9.60
2019-02-16T10:08:21.005Z,10.40
2019-02-16T10:13:28.971Z,10.77
2019-02-16T10:18:36.954Z,10.22
2019-02-16T10:23:45.099Z,11.93
2019-02-16T10:28:53.170Z,11.30
2019-02-16T10:34:01.077Z,11.18
2019-02-16T10:39:09.074Z,12.27
2019-02-16T10:44:17.357Z,12.03
2019-02-16T10:49:25.910Z,12.10
2019-02-16T10:54:34.103Z,12.34
2019-02-16T10:59:42.465Z,12.39
2019-02-16T11:04:51.304Z,12.90
2019-02-16T11:09:59.525Z,13.36
2019-02-16T11:15:07.753Z,12.82
2019-02-16T11:20:16.045Z,13.33
2019-02-16T11:25:24.364Z,13.65
2019-02-16T11:30:32.756Z,13.80
2019-02-16T11:35:41.357Z,14.44
2019-02-16T11:40:49.375Z,13.88
2019-02-16T11:45:57.588Z,14.75
2019-02-16T11:51:06.130Z,14.69
2019-02-16T11:56:14.361Z,13.87
2019-02-16T12:01:22.601Z,14.14
2019-02-16T12:06:31.548Z,14.36
2019-02-16T12:11:39.773Z,14.49
2019-02-16T12:16:47.965Z,14.08
2019-02-16T12:21:56.720Z,14.93
2019-02-16T12:27:05.029Z,14.81
2019-02-16T12:32:07.287Z,14.65
2019-02-16T12:37:15.278Z,14.61
2019-02-16T12:42:23.415Z,14.39
2019-02-16T12:47:31.525Z,14.55
2019-02-16T12:52:39.802Z,14.45
2019-02-16T12:57:48.165Z,14.98
2019-02-16T13:02:56.369Z,14.38
2019-02-16T13:08:04.668Z,14.17
2019-02-16T13:13:13.660Z,14.16
2019-02-16T13:18:22.196Z,15.05
2019-02-16T13:23:31.157Z,14.57
2019-02-16T13:28:40.588Z,14.63
2019-02-16T13:33:49.615Z,14.76
2019-02-16T13:38:58.378Z,14.53
2019-02-16T13:44:07.688Z,14.26
2019-02-16T13:49:16.979Z,15.25
2019-02-16T13:54:25.714Z,14.31
2019-02-16T13:59:34.539Z,15.23
2019-02-16T14:04:42.863Z,15.01
2019-02-16T14:09:51.249Z,15.08
2019-02-16T14:14:59.705Z,15.60
2019-02-16T14:20:07.826Z,15.46
2019-02-16T14:25:16.133Z,15.66
2019-02-16T14:30:24.514Z,16.38
2019-02-16T14:35:33.201Z,15.46
2019-02-16T14:40:41.321Z,15.02
2019-02-16T14:45:49.733Z,16.74
2019-02-16T14:50:58.302Z,15.80
2019-02-16T14:56:06.974Z,16.51
2019-02-16T15:01:19.541Z,16.29
2019-02-16T15:06:21.950Z,16.11
2019-02-16T15:11:30.341Z,16.68
2019-02-16T15:16:38.593Z,16.97
2019-02-16T15:21:46.815Z,16.13
2019-02-16T15:26:55.270Z,18.60
2019-02-16T15:32:03.463Z,19.18
2019-02-16T15:37:11.973Z,17.15
2019-02-16T15:42:20.093Z,19.33
2019-02-16T15:47:28.513Z,18.10
2019-02-16T15:52:36.724Z,16.76
2019-02-16T15:57:45.057Z,18.46
2019-02-16T16:02:53.343Z,18.24
2019-02-16T16:08:01.614Z,17.58
2019-02-16T16:13:02.393Z,16.89
2019-02-16T16:18:10.645Z,17.82
2019-02-16T16:23:18.620Z,18.17
2019-02-16T16:28:26.688Z,17.69
2019-02-16T16:33:34.866Z,18.13
2019-02-16T16:38:43.127Z,18.73
2019-02-16T16:43:51.366Z,18.78
2019-02-16T16:48:59.470Z,19.03
2019-02-16T16:54:07.666Z,19.18
2019-02-16T16:59:15.999Z,19.47
2019-02-16T17:04:24.329Z,17.79
2019-02-16T17:09:33.041Z,18.13
2019-02-16T17:14:41.267Z,29.00
2019-02-16T17:19:49.468Z,23.82
2019-02-16T17:24:57.979Z,21.57
2019-02-16T17:30:06.156Z,19.35
2019-02-16T17:35:14.773Z,19.45
2019-02-16T17:40:23.736Z,18.91
2019-02-16T17:45:31.685Z,19.39
2019-02-16T17:50:39.611Z,21.45
2019-02-16T17:55:47.728Z,23.47
2019-02-16T18:00:55.677Z,26.41
2019-02-16T18:06:03.814Z,21.28
2019-02-16T18:11:12.104Z,20.15
2019-02-16T18:16:20.239Z,19.34
2019-02-16T18:21:28.663Z,18.71
2019-02-16T18:26:37.029Z,24.09
2019-02-16T18:36:54.042Z,26.04
2019-02-16T18:42:02.970Z,21.59
2019-02-16T18:47:11.814Z,24.39
2019-02-16T18:52:21.207Z,20.43
2019-02-16T18:57:31.972Z,20.13
2019-02-16T19:02:30.305Z,20.52
2019-02-16T19:07:39.409Z,21.36
2019-02-16T19:12:47.644Z,23.33
2019-02-16T19:17:55.968Z,28.03
2019-02-16T19:23:04.261Z,27.36
2019-02-16T19:28:12.482Z,21.80
2019-02-16T19:38:29.292Z,21.74
2019-02-16T19:48:45.786Z,23.13
2019-02-16T20:04:04.952Z,41.23
2019-02-16T20:19:30.629Z,21.93
2019-02-16T20:24:39.064Z,22.50
2019-02-16T20:34:55.999Z,28.39
2019-02-16T20:50:20.970Z,35.60
2019-02-16T21:05:46.826Z,22.79
2019-02-16T21:10:55.567Z,22.79
2019-02-16T21:21:12.297Z,23.31
2019-02-16T21:26:20.741Z,25.08
2019-02-16T21:31:29.042Z,23.42
2019-02-16T21:36:37.519Z,23.45
2019-02-16T21:46:54.323Z,23.05
2019-02-16T22:17:45.537Z,23.41
2019-02-16T22:22:52.362Z,23.83
2019-02-16T23:09:12.503Z,25.37
2019-02-16T23:14:20.549Z,25.21
2019-02-16T23:19:28.685Z,25.35
2019-02-16T23:40:02.494Z,25.30
2019-02-16T23:50:19.314Z,26.16
2019-02-16T23:55:27.426Z,25.45
